createdAt,value
2019-01-25T00:00:10.420Z,19.20
2019-01-25T00:01:09.626Z,18.90
2019-01-25T00:02:09.614Z,18.90
2019-01-25T00:03:10.304Z,18.30
2019-01-25T00:04:09.589Z,18.70
2019-01-25T00:05:09.576Z,17.60
2019-01-25T00:06:10.435Z,19.30
2019-01-25T00:07:09.552Z,18.70
2019-01-25T00:08:09.572Z,19.60
2019-01-25T00:09:09.537Z,18.50
2019-01-25T00:10:09.558Z,18.50
2019-01-25T00:11:09.511Z,19.40
2019-01-25T00:12:10.424Z,19.00
2019-01-25T00:13:24.644Z,19.80
2019-01-25T00:14:09.655Z,18.80
2019-01-25T00:15:09.610Z,18.30
2019-01-25T00:16:09.624Z,19.00
2019-01-25T00:17:09.537Z,18.00
2019-01-25T00:18:09.551Z,18.70
2019-01-25T00:19:10.979Z,19.80
2019-01-25T00:20:09.501Z,20.00
2019-01-25T00:21:09.441Z,19.00
2019-01-25T00:22:09.391Z,18.20
2019-01-25T00:23:09.374Z,18.10
2019-01-25T00:24:09.956Z,20.00
2019-01-25T00:25:09.400Z,19.40
2019-01-25T00:26:09.346Z,18.80
2019-01-25T00:27:09.344Z,19.90
2019-01-25T00:28:09.331Z,19.30
2019-01-25T00:29:20.262Z,19.90
2019-01-25T00:30:09.435Z,20.10
2019-01-25T00:31:09.374Z,19.00
2019-01-25T00:32:09.329Z,19.50
2019-01-25T00:33:09.290Z,19.70
2019-01-25T00:34:09.268Z,20.20
2019-01-25T00:35:09.250Z,20.90
2019-01-25T00:36:09.277Z,19.30
2019-01-25T00:37:09.215Z,18.70
2019-01-25T00:38:17.901Z,18.60
2019-01-25T00:39:09.302Z,20.30
2019-01-25T00:40:09.283Z,20.60
2019-01-25T00:41:09.618Z,19.30
2019-01-25T00:42:09.309Z,19.30
2019-01-25T00:43:09.171Z,19.40
2019-01-25T00:44:09.153Z,18.60
2019-01-25T00:45:09.208Z,18.60
2019-01-25T00:46:09.135Z,20.70
2019-01-25T00:47:09.158Z,19.10
2019-01-25T00:48:09.105Z,20.40
2019-01-25T00:49:30.205Z,19.00
2019-01-25T00:50:09.097Z,19.80
2019-01-25T00:51:09.074Z,18.30
2019-01-25T00:52:09.114Z,19.90
2019-01-25T00:53:19.534Z,19.40
2019-01-25T00:54:09.136Z,20.20
2019-01-25T00:55:09.099Z,20.60
2019-01-25T00:56:09.094Z,19.50
2019-01-25T00:57:09.145Z,20.20
2019-01-25T00:58:09.033Z,22.10
2019-01-25T00:59:09.576Z,19.70
2019-01-25T01:00:08.971Z,20.70
2019-01-25T01:01:08.961Z,21.70
2019-01-25T01:02:08.973Z,20.40
2019-01-25T01:03:08.948Z,19.40
2019-01-25T01:04:08.926Z,19.10
2019-01-25T01:05:08.922Z,19.60
2019-01-25T01:06:08.905Z,19.90
2019-01-25T01:07:08.900Z,22.10
2019-01-25T01:08:08.919Z,21.60
2019-01-25T01:09:08.890Z,21.10
2019-01-25T01:10:14.037Z,20.90
2019-01-25T01:11:10.550Z,21.20
2019-01-25T01:12:08.844Z,20.20
2019-01-25T01:13:08.831Z,21.20
2019-01-25T01:14:08.843Z,20.70
2019-01-25T01:15:08.826Z,21.00
2019-01-25T01:16:08.793Z,22.20
2019-01-25T01:17:08.782Z,21.80
2019-01-25T01:18:08.773Z,22.20
2019-01-25T01:19:08.762Z,21.20
2019-01-25T01:20:08.764Z,20.50
2019-01-25T01:21:08.750Z,21.40
2019-01-25T01:22:08.728Z,22.70
2019-01-25T01:23:08.719Z,22.50
2019-01-25T01:24:08.704Z,22.30
2019-01-25T01:25:08.700Z,20.90
2019-01-25T01:26:08.683Z,22.70
2019-01-25T01:27:08.686Z,22.60
2019-01-25T01:28:08.663Z,21.20
2019-01-25T01:29:08.657Z,22.50
2019-01-25T01:30:08.664Z,23.30
2019-01-25T01:31:08.663Z,21.90
2019-01-25T01:32:08.614Z,21.90
2019-01-25T01:33:08.610Z,23.00
2019-01-25T01:35:19.983Z,20.10
2019-01-25T01:36:20.840Z,21.30
2019-01-25T01:37:19.820Z,22.40
2019-01-25T01:38:19.815Z,22.50
2019-01-25T01:39:19.815Z,22.90
2019-01-25T01:40:22.185Z,22.70
2019-01-25T01:41:19.810Z,22.30
2019-01-25T01:42:19.773Z,22.10
2019-01-25T01:43:19.758Z,21.80
2019-01-25T01:44:19.751Z,22.40
2019-01-25T01:45:19.759Z,22.40
2019-01-25T01:46:20.560Z,23.50
2019-01-25T01:47:19.729Z,22.50
2019-01-25T01:48:19.707Z,23.50
2019-01-25T01:49:19.693Z,23.80
2019-01-25T01:50:19.678Z,23.30
2019-01-25T01:51:19.696Z,22.70
2019-01-25T01:52:19.698Z,23.20
2019-01-25T01:53:19.662Z,23.30
2019-01-25T01:54:19.641Z,23.00
2019-01-25T01:55:19.648Z,23.30
2019-01-25T01:56:19.636Z,22.60
2019-01-25T01:57:20.083Z,23.10
2019-01-25T01:58:20.587Z,22.70
2019-01-25T01:59:19.585Z,23.60
2019-01-25T02:00:19.568Z,23.90
2019-01-25T02:01:20.566Z,23.00
2019-01-25T02:02:19.569Z,22.90
2019-01-25T02:03:19.571Z,21.50
2019-01-25T02:04:20.061Z,20.80
2019-01-25T02:05:19.525Z,21.90
2019-01-25T02:06:19.500Z,22.30
2019-01-25T02:07:19.498Z,21.60
2019-01-25T02:08:19.522Z,21.60
2019-01-25T02:09:19.495Z,22.00
2019-01-25T02:10:19.461Z,21.50
2019-01-25T02:11:19.454Z,21.60
2019-01-25T02:12:19.444Z,23.20
2019-01-25T02:13:19.433Z,22.10
2019-01-25T02:14:19.438Z,22.40
2019-01-25T02:15:19.427Z,22.40
2019-01-25T02:16:19.396Z,21.80
2019-01-25T02:17:29.758Z,22.70
2019-01-25T02:18:28.967Z,23.40
2019-01-25T02:19:19.576Z,22.30
2019-01-25T02:20:19.499Z,21.70
2019-01-25T02:21:19.416Z,22.90
2019-01-25T02:22:19.476Z,21.90
2019-01-25T02:23:19.359Z,20.90
2019-01-25T02:24:19.338Z,23.00
2019-01-25T02:25:19.295Z,21.40
2019-01-25T02:26:19.314Z,21.20
2019-01-25T02:27:19.278Z,21.90
2019-01-25T02:28:19.264Z,20.00
2019-01-25T02:29:19.249Z,23.00
2019-01-25T02:30:19.312Z,20.40
2019-01-25T02:31:19.226Z,21.60
2019-01-25T02:32:19.222Z,22.20
2019-01-25T02:33:19.203Z,21.70
2019-01-25T02:34:19.196Z,22.30
2019-01-25T02:35:19.207Z,22.60
2019-01-25T02:36:19.190Z,21.20
2019-01-25T02:37:19.164Z,22.20
2019-01-25T02:38:20.123Z,22.20
2019-01-25T02:39:20.148Z,22.20
2019-01-25T02:40:19.157Z,22.00
2019-01-25T02:41:19.159Z,20.30
2019-01-25T02:42:19.130Z,22.50
2019-01-25T02:43:19.111Z,22.20
2019-01-25T02:44:19.623Z,22.50
2019-01-25T02:45:19.089Z,21.50
2019-01-25T02:46:19.091Z,23.00
2019-01-25T02:47:19.086Z,22.10
2019-01-25T02:48:19.068Z,22.20
2019-01-25T02:49:19.144Z,21.40
2019-01-25T02:50:20.619Z,22.30
2019-01-25T02:51:19.021Z,20.70
2019-01-25T02:52:20.030Z,21.20
2019-01-25T02:53:18.987Z,21.30
2019-01-25T02:54:18.980Z,24.10
2019-01-25T02:55:18.963Z,22.50
2019-01-25T02:56:20.147Z,22.50
2019-01-25T02:57:18.967Z,20.80
2019-01-25T02:58:18.954Z,20.80
2019-01-25T02:59:18.922Z,22.70
2019-01-25T03:00:18.922Z,22.40
2019-01-25T03:01:18.903Z,22.50
2019-01-25T03:02:29.455Z,21.70
2019-01-25T03:03:19.780Z,22.60
2019-01-25T03:05:43.925Z,20.60
2019-01-25T03:06:42.948Z,21.30
2019-01-25T03:07:42.969Z,22.40
2019-01-25T03:08:42.968Z,21.00
2019-01-25T03:09:43.381Z,21.10
2019-01-25T03:10:47.233Z,21.30
2019-01-25T03:11:42.782Z,21.50
2019-01-25T03:12:42.755Z,21.30
2019-01-25T03:13:42.767Z,21.40
2019-01-25T03:14:42.766Z,21.80
2019-01-25T03:15:42.729Z,21.30
2019-01-25T03:16:42.716Z,20.40
2019-01-25T03:17:42.729Z,22.00
2019-01-25T03:18:42.686Z,20.50
2019-01-25T03:19:42.715Z,21.10
2019-01-25T03:20:42.673Z,20.90
2019-01-25T03:21:42.661Z,19.70
2019-01-25T03:22:42.666Z,21.90
2019-01-25T03:23:42.640Z,21.30
2019-01-25T03:24:42.632Z,22.70
2019-01-25T03:25:42.625Z,21.30
2019-01-25T03:26:42.600Z,20.60
2019-01-25T03:27:42.606Z,21.90
2019-01-25T03:28:42.611Z,20.60
2019-01-25T03:29:42.572Z,20.20
2019-01-25T03:30:42.591Z,19.90
2019-01-25T03:31:42.549Z,21.70
2019-01-25T03:32:42.548Z,20.10
2019-01-25T03:33:42.528Z,21.00
2019-01-25T03:34:42.518Z,20.50
2019-01-25T03:35:42.525Z,20.50
2019-01-25T03:36:42.846Z,20.80
2019-01-25T03:37:43.317Z,20.10
2019-01-25T03:38:42.475Z,20.20
2019-01-25T03:39:42.470Z,19.90
2019-01-25T03:40:42.452Z,21.70
2019-01-25T03:41:42.499Z,21.60
2019-01-25T03:42:42.436Z,21.40
2019-01-25T03:43:44.340Z,21.10
2019-01-25T03:44:45.323Z,21.30
2019-01-25T03:45:42.399Z,20.00
2019-01-25T03:46:42.437Z,20.40
2019-01-25T03:47:42.380Z,20.20
2019-01-25T03:48:42.390Z,20.00
2019-01-25T03:49:42.359Z,20.50
2019-01-25T03:50:42.360Z,20.70
2019-01-25T03:51:42.341Z,19.50
2019-01-25T03:52:42.360Z,20.10
2019-01-25T03:53:42.324Z,21.90
2019-01-25T03:54:42.820Z,20.80
2019-01-25T03:55:42.294Z,18.70
2019-01-25T03:56:42.301Z,20.50
2019-01-25T03:57:42.272Z,20.50
2019-01-25T03:58:42.275Z,19.90
2019-01-25T03:59:42.259Z,19.80
2019-01-25T04:00:42.247Z,19.70
2019-01-25T04:01:42.232Z,18.80
2019-01-25T04:02:42.817Z,20.40
2019-01-25T04:03:42.216Z,19.60
2019-01-25T04:04:42.226Z,18.40
2019-01-25T04:05:42.187Z,18.70
2019-01-25T04:06:42.813Z,18.60
2019-01-25T04:07:42.169Z,19.80
2019-01-25T04:08:42.346Z,19.40
2019-01-25T04:09:42.132Z,20.90
2019-01-25T04:10:42.166Z,19.20
2019-01-25T04:11:42.822Z,20.30
2019-01-25T04:12:42.111Z,20.70
2019-01-25T04:13:42.109Z,19.40
2019-01-25T04:14:42.114Z,19.60
2019-01-25T04:15:42.071Z,19.80
2019-01-25T04:16:42.072Z,20.10
2019-01-25T04:17:42.861Z,19.60
2019-01-25T04:18:42.049Z,20.50
2019-01-25T04:19:42.075Z,19.90
2019-01-25T04:20:42.822Z,19.70
2019-01-25T04:21:42.051Z,20.30
2019-01-25T04:22:42.010Z,20.30
2019-01-25T04:23:42.025Z,20.10
2019-01-25T04:24:42.016Z,20.10
2019-01-25T04:25:41.985Z,20.00
2019-01-25T04:26:41.957Z,20.60
2019-01-25T04:27:41.969Z,19.70
2019-01-25T04:28:41.930Z,19.70
2019-01-25T04:29:41.915Z,18.80
2019-01-25T04:30:42.854Z,20.00
2019-01-25T04:31:41.905Z,19.30
2019-01-25T04:32:41.893Z,20.70
2019-01-25T04:33:42.890Z,18.50
2019-01-25T04:34:41.893Z,20.30
2019-01-25T04:35:41.876Z,20.10
2019-01-25T04:36:41.884Z,19.80
2019-01-25T04:37:41.841Z,19.80
2019-01-25T04:38:41.827Z,20.80
2019-01-25T04:39:41.828Z,17.60
2019-01-25T04:40:41.824Z,19.80
2019-01-25T04:41:41.802Z,19.90
2019-01-25T04:42:42.341Z,19.70
2019-01-25T04:43:41.770Z,19.60
2019-01-25T04:44:42.317Z,18.90
2019-01-25T04:45:41.760Z,20.80
2019-01-25T04:46:41.753Z,20.30
2019-01-25T04:47:42.317Z,20.50
2019-01-25T04:48:41.766Z,21.20
2019-01-25T04:49:41.711Z,20.10
2019-01-25T04:50:46.357Z,20.50
2019-01-25T04:51:41.706Z,19.10
2019-01-25T04:52:42.315Z,20.10
2019-01-25T04:53:41.672Z,20.90
2019-01-25T04:54:41.667Z,19.80
2019-01-25T04:55:42.355Z,20.50
2019-01-25T04:56:41.631Z,18.80
2019-01-25T04:57:42.313Z,19.20
2019-01-25T04:58:41.628Z,21.10
2019-01-25T04:59:41.607Z,21.20
2019-01-25T05:00:41.587Z,18.80
2019-01-25T05:01:41.590Z,19.60
2019-01-25T05:02:41.573Z,20.50
2019-01-25T05:03:42.334Z,20.00
2019-01-25T05:04:41.589Z,20.40
2019-01-25T05:05:41.531Z,20.40
2019-01-25T05:06:41.520Z,20.10
2019-01-25T05:07:41.511Z,21.10
2019-01-25T05:08:44.315Z,20.50
2019-01-25T05:09:41.525Z,19.50
2019-01-25T05:10:41.498Z,20.50
2019-01-25T05:11:41.468Z,19.10
2019-01-25T05:12:41.460Z,19.40
2019-01-25T05:13:42.460Z,19.50
2019-01-25T05:14:41.440Z,19.80
2019-01-25T05:15:41.454Z,19.30
2019-01-25T05:16:41.414Z,19.20
2019-01-25T05:17:41.427Z,19.10
2019-01-25T05:18:41.383Z,20.70
2019-01-25T05:19:41.380Z,19.80
2019-01-25T05:20:41.409Z,21.10
2019-01-25T05:21:41.353Z,20.70
2019-01-25T05:22:41.339Z,20.70
2019-01-25T05:23:41.372Z,20.50
2019-01-25T05:24:41.323Z,19.70
2019-01-25T05:25:41.308Z,21.10
2019-01-25T05:26:42.307Z,20.80
2019-01-25T05:27:41.293Z,20.00
2019-01-25T05:28:41.277Z,19.20
2019-01-25T05:29:41.316Z,20.20
2019-01-25T05:30:41.801Z,19.90
2019-01-25T05:31:41.356Z,19.90
2019-01-25T05:32:41.811Z,19.50
2019-01-25T05:33:41.227Z,19.70
2019-01-25T05:34:41.217Z,19.80
2019-01-25T05:35:41.206Z,21.70
2019-01-25T05:36:41.222Z,19.40
2019-01-25T05:37:41.336Z,19.00
2019-01-25T05:38:41.809Z,18.90
2019-01-25T05:39:41.166Z,18.30
2019-01-25T05:40:41.162Z,18.80
2019-01-25T05:41:41.140Z,19.10
2019-01-25T05:42:41.341Z,17.00
2019-01-25T05:43:41.851Z,17.60
2019-01-25T05:44:41.115Z,18.50
2019-01-25T05:45:41.102Z,19.00
2019-01-25T05:46:41.085Z,17.90
2019-01-25T05:47:41.080Z,18.60
2019-01-25T05:48:41.344Z,17.00
2019-01-25T05:49:41.824Z,17.80
2019-01-25T05:50:41.043Z,18.00
2019-01-25T05:51:42.029Z,17.40
2019-01-25T05:52:41.023Z,18.40
2019-01-25T05:53:41.803Z,18.30
2019-01-25T05:54:41.009Z,18.70
2019-01-25T05:55:41.826Z,18.30
2019-01-25T05:56:41.849Z,18.90
2019-01-25T05:57:40.956Z,18.00
2019-01-25T05:58:40.959Z,19.70
2019-01-25T05:59:41.366Z,18.60
2019-01-25T06:00:41.801Z,18.90
2019-01-25T06:01:41.806Z,17.20
2019-01-25T06:02:40.958Z,19.50
2019-01-25T06:03:40.907Z,19.10
2019-01-25T06:04:41.006Z,20.50
2019-01-25T06:05:43.808Z,20.90
2019-01-25T06:06:40.873Z,19.70
2019-01-25T06:07:41.806Z,21.60
2019-01-25T06:08:44.061Z,19.80
2019-01-25T06:09:42.339Z,19.90
2019-01-25T06:10:40.827Z,19.00
2019-01-25T06:11:51.871Z,20.20
2019-01-25T06:12:40.942Z,18.90
2019-01-25T06:13:41.698Z,18.60
2019-01-25T06:14:40.952Z,17.90
2019-01-25T06:15:40.811Z,18.80
2019-01-25T06:16:40.817Z,18.20
2019-01-25T06:17:40.757Z,20.60
2019-01-25T06:18:40.751Z,19.70
2019-01-25T06:20:01.797Z,18.70
2019-01-25T06:20:40.761Z,18.80
2019-01-25T06:21:40.723Z,18.90
2019-01-25T06:22:40.719Z,18.90
2019-01-25T06:23:40.698Z,19.00
2019-01-25T06:24:41.353Z,19.20
2019-01-25T06:25:40.715Z,19.10
2019-01-25T06:26:40.688Z,18.70
2019-01-25T06:27:40.675Z,19.50
2019-01-25T06:28:40.635Z,19.50
2019-01-25T06:29:40.633Z,18.50
2019-01-25T06:30:40.603Z,19.40
2019-01-25T06:31:41.357Z,20.00
2019-01-25T06:32:42.426Z,18.50
2019-01-25T06:33:40.588Z,18.70
2019-01-25T06:35:56.617Z,17.10
2019-01-25T06:38:16.087Z,16.40
2019-01-25T06:39:15.839Z,17.20
2019-01-25T06:40:15.757Z,17.40
2019-01-25T06:41:15.741Z,17.70
2019-01-25T06:42:33.066Z,17.00
2019-01-25T06:43:15.912Z,18.80
2019-01-25T06:44:16.019Z,19.60
2019-01-25T06:45:15.936Z,18.30
2019-01-25T06:46:15.617Z,18.70
2019-01-25T06:47:15.623Z,17.70
2019-01-25T06:48:15.583Z,16.60
2019-01-25T06:50:54.624Z,18.20
2019-01-25T06:53:19.093Z,12.90
2019-01-25T06:54:30.171Z,17.50
2019-01-25T06:56:42.976Z,17.00
2019-01-25T07:00:20.893Z,15.20
2019-01-25T07:01:31.835Z,17.90
2019-01-25T07:02:21.615Z,17.80
2019-01-25T07:03:31.876Z,18.20
2019-01-25T07:06:01.520Z,14.70
2019-01-25T07:09:48.059Z,15.70
2019-01-25T07:12:31.277Z,16.20
2019-01-25T07:14:24.180Z,18.40
2019-01-25T07:15:36.194Z,16.90
2019-01-25T07:16:40.116Z,17.40
2019-01-25T07:20:14.235Z,17.40
2019-01-25T07:22:41.762Z,17.70
2019-01-25T07:24:57.313Z,16.10
2019-01-25T07:25:55.836Z,19.00
2019-01-25T07:26:54.869Z,17.90
2019-01-25T07:30:02.180Z,15.20
2019-01-25T07:31:13.634Z,17.10
2019-01-25T07:32:24.403Z,16.10
2019-01-25T07:33:20.805Z,17.30
2019-01-25T07:34:16.669Z,17.20
2019-01-25T07:35:22.178Z,17.70
2019-01-25T07:36:27.448Z,17.60
2019-01-25T07:37:20.844Z,17.10
2019-01-25T07:38:15.721Z,18.10
2019-01-25T07:39:12.018Z,18.90
2019-01-25T07:40:19.532Z,18.20
2019-01-25T07:41:12.441Z,18.90
2019-01-25T07:42:24.384Z,18.50
2019-01-25T07:43:11.794Z,18.10
2019-01-25T07:44:23.317Z,18.60
2019-01-25T07:45:18.816Z,18.30
2019-01-25T07:46:04.732Z,21.30
2019-01-25T07:47:20.459Z,22.70
2019-01-25T07:48:11.069Z,21.40
2019-01-25T07:49:12.296Z,20.10
2019-01-25T07:52:30.935Z,17.10
2019-01-25T07:54:47.461Z,16.60
2019-01-25T07:55:58.435Z,20.00
2019-01-25T07:56:59.796Z,19.80
2019-01-25T07:57:48.802Z,19.40
2019-01-25T07:58:57.727Z,19.60
2019-01-25T07:59:58.221Z,21.40
2019-01-25T08:01:01.099Z,19.60
2019-01-25T08:01:58.688Z,19.80
2019-01-25T08:03:04.628Z,19.50
2019-01-25T08:03:59.193Z,19.80
2019-01-25T08:06:14.149Z,13.80
2019-01-25T08:08:32.509Z,15.80
2019-01-25T08:09:49.485Z,18.40
2019-01-25T08:10:50.112Z,23.00
2019-01-25T08:11:44.693Z,21.70
2019-01-25T08:12:43.033Z,21.50
2019-01-25T08:15:55.977Z,20.40
2019-01-25T08:18:30.070Z,15.70
2019-01-25T08:19:21.324Z,17.70
2019-01-25T08:20:22.068Z,20.30
2019-01-25T08:21:21.662Z,19.40
2019-01-25T08:22:24.283Z,20.80
2019-01-25T08:29:38.045Z,22.50
2019-01-25T08:30:38.915Z,21.70
2019-01-25T08:31:38.743Z,23.00
2019-01-25T08:32:38.035Z,22.70
2019-01-25T08:33:37.923Z,21.00
2019-01-25T08:34:37.773Z,22.00
2019-01-25T08:35:37.819Z,19.90
2019-01-25T08:36:49.079Z,20.90
2019-01-25T08:37:37.969Z,20.90
2019-01-25T08:38:38.006Z,19.30
2019-01-25T08:39:58.346Z,20.50
2019-01-25T08:40:37.825Z,18.70
2019-01-25T08:41:48.697Z,16.40
2019-01-25T08:42:37.855Z,19.10
2019-01-25T08:43:38.724Z,19.00
2019-01-25T08:44:37.858Z,18.50
2019-01-25T08:45:37.662Z,18.30
2019-01-25T08:46:37.644Z,18.00
2019-01-25T08:47:50.083Z,18.70
2019-01-25T08:48:38.397Z,18.80
2019-01-25T08:49:37.815Z,20.90
2019-01-25T08:50:47.035Z,18.50
2019-01-25T08:51:38.018Z,19.70
2019-01-25T08:52:49.033Z,16.60
2019-01-25T08:53:59.001Z,18.50
2019-01-25T08:54:48.809Z,17.90
2019-01-25T08:55:48.201Z,18.50
2019-01-25T08:56:48.517Z,20.70
2019-01-25T08:57:46.224Z,20.10
2019-01-25T08:58:46.241Z,20.00
2019-01-25T09:00:02.301Z,21.70
2019-01-25T09:02:22.314Z,17.70
2019-01-25T09:04:43.135Z,23.10
2019-01-25T09:06:49.125Z,17.40
2019-01-25T09:09:00.830Z,16.00
2019-01-25T09:11:15.306Z,17.80
2019-01-25T09:12:26.528Z,19.30
2019-01-25T09:14:46.214Z,19.80
2019-01-25T09:15:44.683Z,20.90
2019-01-25T09:16:47.154Z,20.00
2019-01-25T09:21:42.731Z,19.30
2019-01-25T09:23:58.275Z,17.10
2019-01-25T09:26:16.802Z,16.60
2019-01-25T09:27:30.295Z,19.00
2019-01-25T09:28:31.319Z,20.10
2019-01-25T09:29:30.662Z,21.90
2019-01-25T09:31:38.211Z,17.00
2019-01-25T09:34:18.190Z,19.70
2019-01-25T09:36:08.347Z,20.50
2019-01-25T09:38:34.162Z,16.40
2019-01-25T09:39:23.857Z,19.40
2019-01-25T09:40:39.656Z,20.10
2019-01-25T09:41:35.861Z,19.20
2019-01-25T09:43:40.929Z,19.80
2019-01-25T09:45:45.443Z,23.10
2019-01-25T09:48:00.509Z,21.00
2019-01-25T09:51:33.554Z,19.20
2019-01-25T09:52:32.440Z,21.20
2019-01-25T09:53:30.795Z,22.80
2019-01-25T09:54:17.006Z,20.70
2019-01-25T09:55:39.548Z,21.40
2019-01-25T09:57:37.728Z,19.30
2019-01-25T09:59:40.493Z,17.40
2019-01-25T10:00:40.350Z,19.70
2019-01-25T10:01:40.246Z,20.00
2019-01-25T10:02:40.269Z,19.40
2019-01-25T10:03:40.934Z,21.30
2019-01-25T10:04:40.143Z,20.90
2019-01-25T10:07:02.222Z,19.70
2019-01-25T10:07:53.048Z,21.00
2019-01-25T10:08:53.120Z,20.30
2019-01-25T10:09:52.917Z,19.50
2019-01-25T10:10:52.924Z,20.30
2019-01-25T10:11:52.893Z,19.70
2019-01-25T10:12:52.902Z,19.80
2019-01-25T10:13:52.860Z,20.10
2019-01-25T10:14:52.863Z,18.60
2019-01-25T10:15:53.585Z,19.70
2019-01-25T10:16:52.848Z,18.30
2019-01-25T10:17:52.816Z,18.80
2019-01-25T10:18:53.578Z,18.20
2019-01-25T10:19:52.799Z,20.10
2019-01-25T10:20:52.790Z,21.30
2019-01-25T10:22:03.310Z,20.50
2019-01-25T10:22:52.869Z,27.90
2019-01-25T10:25:08.254Z,19.20
2019-01-25T10:26:08.180Z,21.20
2019-01-25T10:27:08.260Z,20.50
2019-01-25T10:28:08.091Z,19.30
2019-01-25T10:29:17.707Z,20.00
2019-01-25T10:30:08.171Z,19.60
2019-01-25T10:31:08.200Z,19.90
2019-01-25T10:33:25.567Z,17.50
2019-01-25T10:34:40.395Z,18.50
2019-01-25T10:35:45.737Z,19.60
2019-01-25T10:36:24.640Z,18.80
2019-01-25T10:37:25.767Z,19.70
2019-01-25T10:38:24.708Z,19.70
2019-01-25T10:39:24.548Z,19.00
2019-01-25T10:40:24.553Z,19.10
2019-01-25T10:41:38.960Z,17.90
2019-01-25T10:42:24.642Z,21.20
2019-01-25T10:43:24.728Z,19.20
2019-01-25T10:44:24.580Z,19.40
2019-01-25T10:45:24.551Z,19.10
2019-01-25T10:46:35.162Z,20.20
2019-01-25T10:47:40.223Z,20.30
2019-01-25T10:48:24.628Z,19.00
2019-01-25T10:49:24.596Z,19.50
2019-01-25T10:50:24.495Z,19.90
2019-01-25T10:51:44.139Z,19.10
2019-01-25T10:52:24.763Z,20.50
2019-01-25T10:53:24.495Z,18.70
2019-01-25T10:54:24.566Z,17.50
2019-01-25T10:55:24.444Z,18.70
2019-01-25T10:56:24.538Z,19.30
2019-01-25T10:57:24.389Z,20.40
2019-01-25T10:58:24.335Z,21.70
2019-01-25T10:59:24.351Z,21.00
2019-01-25T11:00:24.346Z,20.40
2019-01-25T11:01:37.369Z,21.30
2019-01-25T11:02:24.444Z,22.00
2019-01-25T11:03:24.345Z,22.10
2019-01-25T11:04:25.422Z,25.60
2019-01-25T11:09:40.900Z,24.70
2019-01-25T11:10:18.096Z,25.40
2019-01-25T11:11:18.185Z,21.30
2019-01-25T11:12:31.346Z,19.00
2019-01-25T11:13:18.114Z,20.50
2019-01-25T11:14:18.089Z,20.70
2019-01-25T11:15:17.997Z,19.00
2019-01-25T11:16:18.043Z,17.70
2019-01-25T11:17:18.699Z,19.90
2019-01-25T11:18:18.627Z,18.70
2019-01-25T11:19:33.170Z,19.20
2019-01-25T11:22:55.898Z,17.40
2019-01-25T11:24:30.252Z,17.30
2019-01-25T11:24:55.870Z,21.40
2019-01-25T11:27:10.936Z,17.90
2019-01-25T11:28:10.825Z,20.10
2019-01-25T11:29:20.479Z,19.10
2019-01-25T11:30:10.693Z,20.60
2019-01-25T11:31:19.651Z,20.60
2019-01-25T11:33:33.950Z,17.60
2019-01-25T11:35:49.274Z,20.20
2019-01-25T11:36:58.386Z,20.90
2019-01-25T11:39:35.206Z,18.60
2019-01-25T11:40:46.633Z,18.40
2019-01-25T11:43:08.538Z,15.90
2019-01-25T11:45:00.197Z,17.70
2019-01-25T11:46:14.341Z,18.90
2019-01-25T11:47:14.373Z,20.00
2019-01-25T11:48:13.856Z,20.10
2019-01-25T11:49:01.023Z,24.30
2019-01-25T11:50:15.484Z,22.10
2019-01-25T11:52:08.143Z,18.70
2019-01-25T11:53:24.345Z,20.30
2019-01-25T11:55:31.283Z,18.40
2019-01-25T11:58:09.013Z,19.90
2019-01-25T11:58:59.270Z,21.30
2019-01-25T11:59:56.750Z,19.00
2019-01-25T12:00:44.976Z,20.40
2019-01-25T12:01:44.883Z,19.50
2019-01-25T12:03:06.336Z,22.80
2019-01-25T12:03:44.991Z,21.60
2019-01-25T12:04:45.856Z,20.50
2019-01-25T12:07:01.312Z,22.00
2019-01-25T12:08:01.349Z,21.00
2019-01-25T12:09:00.476Z,21.00
2019-01-25T12:12:04.406Z,20.60
2019-01-25T12:13:04.379Z,20.70
2019-01-25T12:14:04.288Z,20.60
2019-01-25T12:15:26.064Z,18.90
2019-01-25T12:16:04.299Z,21.10
2019-01-25T12:17:15.053Z,21.60
2019-01-25T12:18:04.282Z,22.10
2019-01-25T12:19:04.301Z,19.50
2019-01-25T12:20:04.183Z,21.20
2019-01-25T12:21:25.283Z,21.90
2019-01-25T12:22:04.107Z,26.80
2019-01-25T12:23:04.114Z,35.10
2019-01-25T12:24:04.124Z,42.60
2019-01-25T12:25:04.071Z,35.70
2019-01-25T12:26:21.570Z,31.50
2019-01-25T12:27:04.156Z,36.80
2019-01-25T12:28:14.067Z,34.10
2019-01-25T12:29:04.148Z,25.30
2019-01-25T12:30:20.107Z,19.70
2019-01-25T12:31:19.599Z,20.20
2019-01-25T12:32:13.513Z,21.50
2019-01-25T12:33:04.098Z,20.00
2019-01-25T12:34:17.135Z,20.00
2019-01-25T12:35:07.398Z,21.20
2019-01-25T12:36:05.049Z,20.50
2019-01-25T12:37:04.865Z,20.80
2019-01-25T12:38:04.952Z,21.30
2019-01-25T12:39:03.937Z,20.70
2019-01-25T12:40:10.559Z,21.00
2019-01-25T12:41:03.887Z,21.50
2019-01-25T12:42:03.910Z,22.80
2019-01-25T12:43:04.561Z,22.00
2019-01-25T12:44:03.852Z,23.90
2019-01-25T12:45:03.860Z,22.50
2019-01-25T12:46:05.582Z,21.20
2019-01-25T12:47:03.837Z,20.70
2019-01-25T12:48:03.806Z,22.90
2019-01-25T12:49:23.814Z,22.10
2019-01-25T12:50:14.286Z,22.30
2019-01-25T12:52:47.834Z,22.00
2019-01-25T12:53:15.180Z,22.80
2019-01-25T12:54:15.740Z,21.40
2019-01-25T12:55:14.990Z,20.80
2019-01-25T12:56:26.541Z,20.40
2019-01-25T12:58:30.896Z,22.50
2019-01-25T12:59:30.216Z,21.50
2019-01-25T13:00:29.071Z,20.80
2019-01-25T13:01:29.132Z,19.20
2019-01-25T13:02:44.104Z,19.30
2019-01-25T13:04:42.117Z,16.40
2019-01-25T13:06:58.592Z,18.80
2019-01-25T13:07:58.619Z,20.50
2019-01-25T13:08:58.578Z,17.90
2019-01-25T13:09:58.600Z,20.40
2019-01-25T13:11:08.763Z,19.20
2019-01-25T13:11:58.485Z,19.30
2019-01-25T13:12:58.445Z,20.90
2019-01-25T13:13:59.038Z,20.80
2019-01-25T13:16:11.487Z,20.50
2019-01-25T13:17:11.381Z,19.00
2019-01-25T13:18:11.303Z,20.90
2019-01-25T13:19:19.894Z,20.10
2019-01-25T13:20:11.261Z,22.20
2019-01-25T13:21:11.298Z,23.50
2019-01-25T13:22:12.200Z,21.50
2019-01-25T13:23:11.163Z,20.10
2019-01-25T13:24:11.163Z,21.00
2019-01-25T13:25:20.677Z,23.20
2019-01-25T13:26:11.257Z,24.80
2019-01-25T13:27:12.906Z,23.70
2019-01-25T13:28:12.250Z,22.80
2019-01-25T13:29:11.100Z,21.60
2019-01-25T13:30:11.081Z,22.80
2019-01-25T13:31:11.082Z,22.90
2019-01-25T13:32:14.520Z,22.80
2019-01-25T13:33:11.832Z,21.30
2019-01-25T13:34:11.847Z,21.30
2019-01-25T13:35:11.019Z,22.50
2019-01-25T13:36:11.012Z,22.80
2019-01-25T13:37:10.999Z,23.20
2019-01-25T13:38:11.830Z,24.00
2019-01-25T13:39:11.007Z,23.40
2019-01-25T13:40:12.849Z,22.40
2019-01-25T13:41:10.963Z,21.70
2019-01-25T13:42:21.529Z,24.00
2019-01-25T13:44:30.479Z,21.10
2019-01-25T13:45:30.552Z,23.50
2019-01-25T13:46:30.478Z,22.50
2019-01-25T13:47:30.579Z,22.10
2019-01-25T13:48:30.505Z,22.50
2019-01-25T13:49:55.667Z,23.10
2019-01-25T13:50:31.301Z,28.80
2019-01-25T13:52:48.789Z,21.70
2019-01-25T13:54:57.102Z,21.30
2019-01-25T13:55:46.406Z,23.00
2019-01-25T13:56:45.892Z,20.50
2019-01-25T13:57:45.796Z,20.90
2019-01-25T13:59:38.199Z,24.90
2019-01-25T14:00:38.151Z,23.60
2019-01-25T14:02:11.395Z,23.80
2019-01-25T14:02:38.121Z,26.30
2019-01-25T14:05:03.405Z,20.60
2019-01-25T14:06:28.613Z,21.50
2019-01-25T14:07:03.656Z,23.90
2019-01-25T14:08:14.613Z,22.60
2019-01-25T14:09:13.634Z,23.40
2019-01-25T14:11:17.765Z,19.00
2019-01-25T14:12:14.590Z,21.70
2019-01-25T14:14:53.071Z,21.20
2019-01-25T14:15:52.999Z,23.60
2019-01-25T14:16:53.831Z,21.20
2019-01-25T14:17:53.003Z,22.00
2019-01-25T14:20:12.423Z,24.40
2019-01-25T14:21:22.094Z,24.50
2019-01-25T14:22:12.410Z,23.00
2019-01-25T14:23:13.330Z,22.70
2019-01-25T14:24:29.942Z,23.40
2019-01-25T14:25:20.864Z,24.40
2019-01-25T14:26:12.313Z,25.60
2019-01-25T14:27:12.260Z,23.30
2019-01-25T14:29:36.381Z,24.30
2019-01-25T14:30:47.857Z,25.60
2019-01-25T14:31:36.254Z,24.40
2019-01-25T14:32:36.219Z,22.70
2019-01-25T14:33:37.150Z,21.90
2019-01-25T14:34:55.383Z,21.50
2019-01-25T14:37:11.069Z,23.00
2019-01-25T14:38:10.988Z,24.60
2019-01-25T14:39:24.026Z,25.60
2019-01-25T14:40:11.001Z,26.30
2019-01-25T14:41:11.952Z,23.20
2019-01-25T14:42:20.186Z,22.90
2019-01-25T14:43:23.995Z,28.20
2019-01-25T14:44:21.246Z,28.50
2019-01-25T14:45:10.991Z,25.30
2019-01-25T14:46:23.167Z,25.90
2019-01-25T14:47:26.852Z,27.10
2019-01-25T14:48:25.448Z,28.50